sensor_id;sensor_type;location;lat;lon;timestamp;pressure;altitude;pressure_sealevel;temperature;humidity
56668;BME280;42542;48.360;10.958;2023-05-09T00:01:10;96497.06;;;11.10;91.76
56668;BME280;42542;48.360;10.958;2023-05-09T00:04:13;96492.34;;;11.04;91.98
56668;BME280;42542;48.360;10.958;2023-05-09T00:07:16;96496.19;;;11.01;91.93
56668;BME280;42542;48.360;10.958;2023-05-09T00:10:18;96502.00;;;10.96;92.49
56668;BME280;42542;48.360;10.958;2023-05-09T00:13:20;96494.44;;;10.92;92.76
56668;BME280;42542;48.360;10.958;2023-05-09T00:16:22;96487.91;;;10.86;92.23
56668;BME280;42542;48.360;10.958;2023-05-09T00:19:24;96485.53;;;10.83;92.41
56668;BME280;42542;48.360;10.958;2023-05-09T00:22:27;96480.50;;;10.80;93.17
56668;BME280;42542;48.360;10.958;2023-05-09T00:25:29;96474.63;;;10.77;93.48
56668;BME280;42542;48.360;10.958;2023-05-09T00:28:31;96475.09;;;10.72;92.98
56668;BME280;42542;48.360;10.958;2023-05-09T00:31:32;96470.91;;;10.70;93.25
56668;BME280;42542;48.360;10.958;2023-05-09T00:34:35;96472.88;;;10.68;93.81
56668;BME280;42542;48.360;10.958;2023-05-09T00:37:37;96469.38;;;10.67;93.93
56668;BME280;42542;48.360;10.958;2023-05-09T00:40:40;96466.88;;;10.66;94.48
56668;BME280;42542;48.360;10.958;2023-05-09T00:43:41;96462.53;;;10.65;94.76
56668;BME280;42542;48.360;10.958;2023-05-09T00:46:45;96449.16;;;10.65;94.39
56668;BME280;42542;48.360;10.958;2023-05-09T00:49:47;96449.16;;;10.65;95.38
56668;BME280;42542;48.360;10.958;2023-05-09T00:52:50;96435.94;;;10.63;94.98
56668;BME280;42542;48.360;10.958;2023-05-09T00:55:54;96437.78;;;10.63;95.28
56668;BME280;42542;48.360;10.958;2023-05-09T00:58:57;96431.44;;;10.64;94.87
56668;BME280;42542;48.360;10.958;2023-05-09T01:01:59;96441.28;;;10.63;95.09
56668;BME280;42542;48.360;10.958;2023-05-09T01:05:02;96428.06;;;10.62;95.17
56668;BME280;42542;48.360;10.958;2023-05-09T01:08:13;96418.84;;;10.56;94.93
56668;BME280;42542;48.360;10.958;2023-05-09T01:11:48;96414.19;;;10.58;94.67
56668;BME280;42542;48.360;10.958;2023-05-09T01:18:52;96408.63;;;10.51;94.68
56668;BME280;42542;48.360;10.958;2023-05-09T01:21:56;96403.59;;;10.48;94.04
56668;BME280;42542;48.360;10.958;2023-05-09T01:32:02;96400.50;;;10.35;94.13
56668;BME280;42542;48.360;10.958;2023-05-09T01:35:05;96394.47;;;10.33;93.62
56668;BME280;42542;48.360;10.958;2023-05-09T01:38:16;96403.09;;;10.27;94.05
56668;BME280;42542;48.360;10.958;2023-05-09T01:41:20;96401.91;;;10.22;94.03
56668;BME280;42542;48.360;10.958;2023-05-09T01:44:27;96399.53;;;10.18;93.54
56668;BME280;42542;48.360;10.958;2023-05-09T01:47:33;96398.97;;;10.15;93.56
56668;BME280;42542;48.360;10.958;2023-05-09T01:50:36;96400.13;;;10.12;93.27
56668;BME280;42542;48.360;10.958;2023-05-09T01:53:41;96394.41;;;10.07;93.63
56668;BME280;42542;48.360;10.958;2023-05-09T01:56:44;96403.56;;;10.05;93.27
56668;BME280;42542;48.360;10.958;2023-05-09T01:59:47;96395.34;;;9.98;93.45
56668;BME280;42542;48.360;10.958;2023-05-09T02:02:50;96395.34;;;9.98;93.49
56668;BME280;42542;48.360;10.958;2023-05-09T02:05:54;96399.13;;;9.96;93.87
56668;BME280;42542;48.360;10.958;2023-05-09T02:08:58;96395.81;;;9.94;93.62
56668;BME280;42542;48.360;10.958;2023-05-09T02:11:59;96394.41;;;9.90;93.28
56668;BME280;42542;48.360;10.958;2023-05-09T02:15:04;96391.06;;;9.88;94.16
56668;BME280;42542;48.360;10.958;2023-05-09T02:18:07;96389.53;;;9.85;94.67
56668;BME280;42542;48.360;10.958;2023-05-09T02:21:09;96383.66;;;9.82;93.84
56668;BME280;42542;48.360;10.958;2023-05-09T02:24:12;96387.50;;;9.79;94.32
56668;BME280;42542;48.360;10.958;2023-05-09T02:27:15;96390.44;;;9.76;94.26
56668;BME280;42542;48.360;10.958;2023-05-09T02:30:20;96382.59;;;9.74;94.15
56668;BME280;42542;48.360;10.958;2023-05-09T02:33:26;96383.06;;;9.70;93.91
56668;BME280;42542;48.360;10.958;2023-05-09T02:36:30;96385.03;;;9.68;93.47
56668;BME280;42542;48.360;10.958;2023-05-09T02:39:34;96379.63;;;9.60;93.46
56668;BME280;42542;48.360;10.958;2023-05-09T02:42:37;96388.47;;;9.60;93.29
56668;BME280;42542;48.360;10.958;2023-05-09T02:45:38;96395.09;;;9.56;93.24
56668;BME280;42542;48.360;10.958;2023-05-09T02:48:40;96384.88;;;9.52;92.95
56668;BME280;42542;48.360;10.958;2023-05-09T02:51:42;96393.19;;;9.49;93.77
56668;BME280;42542;48.360;10.958;2023-05-09T02:54:44;96389.31;;;9.43;93.01
56668;BME280;42542;48.360;10.958;2023-05-09T02:57:46;96388.59;;;9.41;93.37
56668;BME280;42542;48.360;10.958;2023-05-09T03:00:52;96384.41;;;9.38;93.23
56668;BME280;42542;48.360;10.958;2023-05-09T03:03:54;96383.88;;;9.35;93.04
56668;BME280;42542;48.360;10.958;2023-05-09T03:06:56;96390.47;;;9.31;93.12
56668;BME280;42542;48.360;10.958;2023-05-09T03:10:04;96381.13;;;9.27;93.35
56668;BME280;42542;48.360;10.958;2023-05-09T03:13:07;96380.56;;;9.23;93.99
56668;BME280;42542;48.360;10.958;2023-05-09T03:16:12;96381.72;;;9.21;93.16
56668;BME280;42542;48.360;10.958;2023-05-09T03:19:15;96378.34;;;9.19;93.69
56668;BME280;42542;48.360;10.958;2023-05-09T03:22:18;96373.63;;;9.13;93.96
56668;BME280;42542;48.360;10.958;2023-05-09T03:25:27;96382.88;;;9.09;93.98
56668;BME280;42542;48.360;10.958;2023-05-09T03:28:30;96386.72;;;9.06;93.63
56668;BME280;42542;48.360;10.958;2023-05-09T03:31:35;96380.81;;;9.02;93.45
56668;BME280;42542;48.360;10.958;2023-05-09T03:34:37;96376.78;;;8.98;94.48
56668;BME280;42542;48.360;10.958;2023-05-09T03:37:39;96373.28;;;8.98;93.71
56668;BME280;42542;48.360;10.958;2023-05-09T03:40:42;96374.41;;;8.95;94.07
56668;BME280;42542;48.360;10.958;2023-05-09T03:43:45;96374.72;;;8.92;94.39
56668;BME280;42542;48.360;10.958;2023-05-09T03:46:48;96378.22;;;8.93;94.68
56668;BME280;42542;48.360;10.958;2023-05-09T03:49:50;96364.06;;;8.92;95.21
56668;BME280;42542;48.360;10.958;2023-05-09T03:52:56;96367.56;;;8.93;95.18
56668;BME280;42542;48.360;10.958;2023-05-09T03:55:58;96368.22;;;8.95;95.18
56668;BME280;42542;48.360;10.958;2023-05-09T03:59:01;96369.06;;;8.95;95.46
56668;BME280;42542;48.360;10.958;2023-05-09T04:02:03;96372.44;;;8.97;95.37
56668;BME280;42542;48.360;10.958;2023-05-09T04:05:05;96368.66;;;9.00;95.39
56668;BME280;42542;48.360;10.958;2023-05-09T04:08:07;96379.00;;;9.03;96.19
56668;BME280;42542;48.360;10.958;2023-05-09T04:11:10;96364.53;;;9.06;96.23
56668;BME280;42542;48.360;10.958;2023-05-09T04:14:16;96364.41;;;9.07;96.36
56668;BME280;42542;48.360;10.958;2023-05-09T04:17:19;96367.59;;;9.11;95.77
56668;BME280;42542;48.360;10.958;2023-05-09T04:20:21;96360.16;;;9.14;95.70
56668;BME280;42542;48.360;10.958;2023-05-09T04:23:24;96364.19;;;9.18;95.37
56668;BME280;42542;48.360;10.958;2023-05-09T04:26:28;96357.72;;;9.21;95.09
56668;BME280;42542;48.360;10.958;2023-05-09T04:29:31;96359.91;;;9.25;94.11
56668;BME280;42542;48.360;10.958;2023-05-09T04:32:33;96362.13;;;9.30;94.69
56668;BME280;42542;48.360;10.958;2023-05-09T04:35:37;96354.53;;;9.35;95.02
56668;BME280;42542;48.360;10.958;2023-05-09T04:38:40;96347.75;;;9.40;93.76
56668;BME280;42542;48.360;10.958;2023-05-09T04:41:46;96354.63;;;9.43;92.72
56668;BME280;42542;48.360;10.958;2023-05-09T04:44:50;96352.31;;;9.48;92.19
56668;BME280;42542;48.360;10.958;2023-05-09T04:47:55;96355.50;;;9.52;92.49
56668;BME280;42542;48.360;10.958;2023-05-09T04:50:57;96343.72;;;9.54;92.11
56668;BME280;42542;48.360;10.958;2023-05-09T04:53:59;96351.94;;;9.61;91.92
56668;BME280;42542;48.360;10.958;2023-05-09T04:57:06;96356.38;;;9.70;91.81
56668;BME280;42542;48.360;10.958;2023-05-09T05:00:26;96356.88;;;9.73;91.07
56668;BME280;42542;48.360;10.958;2023-05-09T05:03:28;96356.28;;;9.79;91.07
56668;BME280;42542;48.360;10.958;2023-05-09T05:06:30;96362.00;;;9.85;91.18
56668;BME280;42542;48.360;10.958;2023-05-09T05:09:33;96351.00;;;9.88;89.91
56668;BME280;42542;48.360;10.958;2023-05-09T05:12:35;96346.06;;;9.93;90.10
56668;BME280;42542;48.360;10.958;2023-05-09T05:15:40;96338.72;;;9.95;89.33
56668;BME280;42542;48.360;10.958;2023-05-09T05:18:44;96334.59;;;10.00;89.44
56668;BME280;42542;48.360;10.958;2023-05-09T05:21:46;96333.28;;;10.04;89.30
56668;BME280;42542;48.360;10.958;2023-05-09T05:24:48;96340.38;;;10.13;89.41
56668;BME280;42542;48.360;10.958;2023-05-09T05:27:51;96344.97;;;10.21;89.13
56668;BME280;42542;48.360;10.958;2023-05-09T05:30:53;96340.53;;;10.30;89.77
56668;BME280;42542;48.360;10.958;2023-05-09T05:33:55;96346.22;;;10.35;88.43
56668;BME280;42542;48.360;10.958;2023-05-09T05:36:57;96333.38;;;10.38;88.37
56668;BME280;42542;48.360;10.958;2023-05-09T05:40:01;96346.47;;;10.49;88.76
56668;BME280;42542;48.360;10.958;2023-05-09T05:43:03;96344.84;;;10.56;88.71
56668;BME280;42542;48.360;10.958;2023-05-09T05:46:07;96342.03;;;10.58;87.01
56668;BME280;42542;48.360;10.958;2023-05-09T05:49:09;96336.69;;;10.66;86.57
56668;BME280;42542;48.360;10.958;2023-05-09T05:52:12;96337.22;;;10.70;86.00
56668;BME280;42542;48.360;10.958;2023-05-09T05:55:14;96342.28;;;10.73;85.27
56668;BME280;42542;48.360;10.958;2023-05-09T05:58:16;96341.78;;;10.77;85.14
56668;BME280;42542;48.360;10.958;2023-05-09T06:01:18;96341.28;;;10.82;84.91
56668;BME280;42542;48.360;10.958;2023-05-09T06:04:21;96337.16;;;10.87;84.60
56668;BME280;42542;48.360;10.958;2023-05-09T06:07:23;96326.47;;;10.87;84.10
56668;BME280;42542;48.360;10.958;2023-05-09T06:10:25;96328.09;;;10.88;83.64
56668;BME280;42542;48.360;10.958;2023-05-09T06:13:27;96336.84;;;10.99;83.47
56668;BME280;42542;48.360;10.958;2023-05-09T06:16:35;96338.88;;;11.05;83.34
56668;BME280;42542;48.360;10.958;2023-05-09T06:19:36;96337.06;;;11.13;83.47
56668;BME280;42542;48.360;10.958;2023-05-09T06:22:39;96324.72;;;11.20;84.02
56668;BME280;42542;48.360;10.958;2023-05-09T06:25:41;96316.88;;;11.27;83.53
56668;BME280;42542;48.360;10.958;2023-05-09T06:28:44;96310.53;;;11.36;83.08
56668;BME280;42542;48.360;10.958;2023-05-09T06:31:46;96310.56;;;11.44;83.14
56668;BME280;42542;48.360;10.958;2023-05-09T06:34:48;96305.03;;;11.54;82.86
56668;BME280;42542;48.360;10.958;2023-05-09T06:37:50;96306.88;;;11.61;83.41
56668;BME280;42542;48.360;10.958;2023-05-09T06:40:52;96298.03;;;11.69;82.85
56668;BME280;42542;48.360;10.958;2023-05-09T06:43:54;96300.59;;;11.79;82.97
56668;BME280;42542;48.360;10.958;2023-05-09T06:46:57;96289.88;;;11.87;82.58
56668;BME280;42542;48.360;10.958;2023-05-09T06:49:59;96283.66;;;11.94;82.78
56668;BME280;42542;48.360;10.958;2023-05-09T06:53:01;96279.47;;;12.00;82.24
56668;BME280;42542;48.360;10.958;2023-05-09T06:56:03;96276.13;;;12.06;82.67
56668;BME280;42542;48.360;10.958;2023-05-09T06:59:05;96283.81;;;12.17;81.94
56668;BME280;42542;48.360;10.958;2023-05-09T07:02:08;96287.13;;;12.27;81.85
56668;BME280;42542;48.360;10.958;2023-05-09T07:05:10;96280.06;;;12.34;81.40
56668;BME280;42542;48.360;10.958;2023-05-09T07:08:13;96282.56;;;12.44;81.32
56668;BME280;42542;48.360;10.958;2023-05-09T07:11:16;96278.53;;;12.48;80.06
56668;BME280;42542;48.360;10.958;2023-05-09T07:14:18;96288.56;;;12.54;80.03
56668;BME280;42542;48.360;10.958;2023-05-09T07:17:20;96283.53;;;12.59;80.13
56668;BME280;42542;48.360;10.958;2023-05-09T07:20:24;96287.03;;;12.68;80.05
56668;BME280;42542;48.360;10.958;2023-05-09T07:23:26;96281.81;;;12.74;79.75
56668;BME280;42542;48.360;10.958;2023-05-09T07:26:28;96283.63;;;12.82;79.55
56668;BME280;42542;48.360;10.958;2023-05-09T07:29:31;96278.56;;;12.87;79.55
56668;BME280;42542;48.360;10.958;2023-05-09T07:32:32;96281.56;;;12.92;79.17
56668;BME280;42542;48.360;10.958;2023-05-09T07:35:35;96282.91;;;12.96;78.45
56668;BME280;42542;48.360;10.958;2023-05-09T07:38:37;96282.34;;;13.01;78.97
56668;BME280;42542;48.360;10.958;2023-05-09T07:41:40;96280.66;;;13.08;78.76
56668;BME280;42542;48.360;10.958;2023-05-09T07:44:43;96248.78;;;13.13;78.43
56668;BME280;42542;48.360;10.958;2023-05-09T07:47:46;96249.91;;;13.18;78.18
56668;BME280;42542;48.360;10.958;2023-05-09T07:50:48;96252.75;;;13.25;78.53
56668;BME280;42542;48.360;10.958;2023-05-09T07:53:51;96246.47;;;13.33;78.08
56668;BME280;42542;48.360;10.958;2023-05-09T07:56:52;96246.94;;;13.36;77.47
56668;BME280;42542;48.360;10.958;2023-05-09T07:59:55;96241.22;;;13.39;77.32
56668;BME280;42542;48.360;10.958;2023-05-09T08:02:56;96229.66;;;13.39;77.21
56668;BME280;42542;48.360;10.958;2023-05-09T08:06:00;96233.94;;;13.48;77.76
56668;BME280;42542;48.360;10.958;2023-05-09T08:09:02;96233.69;;;13.57;78.31
56668;BME280;42542;48.360;10.958;2023-05-09T08:12:05;96228.44;;;13.64;77.94
56668;BME280;42542;48.360;10.958;2023-05-09T08:15:07;96220.13;;;13.74;77.92
56668;BME280;42542;48.360;10.958;2023-05-09T08:18:09;96223.50;;;13.76;77.18
56668;BME280;42542;48.360;10.958;2023-05-09T08:21:12;96207.66;;;13.81;77.43
56668;BME280;42542;48.360;10.958;2023-05-09T08:24:14;96199.88;;;13.86;77.54
56668;BME280;42542;48.360;10.958;2023-05-09T08:27:15;96189.88;;;13.94;77.20
56668;BME280;42542;48.360;10.958;2023-05-09T08:30:17;96190.25;;;14.06;78.13
56668;BME280;42542;48.360;10.958;2023-05-09T08:33:19;96182.28;;;14.13;77.10
56668;BME280;42542;48.360;10.958;2023-05-09T08:36:21;96182.19;;;14.21;77.46
56668;BME280;42542;48.360;10.958;2023-05-09T08:39:24;96175.97;;;14.35;77.66
56668;BME280;42542;48.360;10.958;2023-05-09T08:42:26;96175.75;;;14.44;77.95
56668;BME280;42542;48.360;10.958;2023-05-09T08:45:34;96176.47;;;14.53;77.75
56668;BME280;42542;48.360;10.958;2023-05-09T08:48:35;96169.97;;;14.62;76.99
56668;BME280;42542;48.360;10.958;2023-05-09T08:51:38;96169.47;;;14.73;77.37
56668;BME280;42542;48.360;10.958;2023-05-09T08:54:40;96162.75;;;14.84;76.46
56668;BME280;42542;48.360;10.958;2023-05-09T08:57:44;96160.25;;;14.97;76.35
56668;BME280;42542;48.360;10.958;2023-05-09T09:00:47;96157.44;;;15.05;75.88
56668;BME280;42542;48.360;10.958;2023-05-09T09:03:50;96144.22;;;15.10;76.19
56668;BME280;42542;48.360;10.958;2023-05-09T09:06:53;96151.78;;;15.21;76.37
56668;BME280;42542;48.360;10.958;2023-05-09T09:09:56;96144.81;;;15.27;75.68
56668;BME280;42542;48.360;10.958;2023-05-09T09:13:02;96145.97;;;15.39;75.21
56668;BME280;42542;48.360;10.958;2023-05-09T09:16:08;96139.78;;;15.45;74.52
56668;BME280;42542;48.360;10.958;2023-05-09T09:19:15;96132.78;;;15.51;74.54
56668;BME280;42542;48.360;10.958;2023-05-09T09:22:18;96120.88;;;15.60;74.24
56668;BME280;42542;48.360;10.958;2023-05-09T09:25:20;96122.78;;;15.66;74.10
56668;BME280;42542;48.360;10.958;2023-05-09T09:28:22;96119.50;;;15.71;73.83
56668;BME280;42542;48.360;10.958;2023-05-09T09:31:25;96114.97;;;15.78;73.44
56668;BME280;42542;48.360;10.958;2023-05-09T09:34:30;96110.88;;;15.82;73.35
56668;BME280;42542;48.360;10.958;2023-05-09T09:37:34;96097.00;;;15.85;74.37
56668;BME280;42542;48.360;10.958;2023-05-09T09:40:36;96100.38;;;15.93;73.81
56668;BME280;42542;48.360;10.958;2023-05-09T09:43:44;96090.69;;;15.99;73.25
56668;BME280;42542;48.360;10.958;2023-05-09T09:46:53;96079.09;;;16.05;73.10
56668;BME280;42542;48.360;10.958;2023-05-09T09:49:55;96082.84;;;16.11;73.00
56668;BME280;42542;48.360;10.958;2023-05-09T09:52:57;96078.13;;;16.19;72.79
56668;BME280;42542;48.360;10.958;2023-05-09T09:56:01;96065.50;;;16.26;73.42
56668;BME280;42542;48.360;10.958;2023-05-09T09:59:11;96067.44;;;16.39;71.99
56668;BME280;42542;48.360;10.958;2023-05-09T10:02:14;96065.38;;;16.48;71.29
56668;BME280;42542;48.360;10.958;2023-05-09T10:05:24;96062.94;;;16.59;71.05
56668;BME280;42542;48.360;10.958;2023-05-09T10:08:27;96049.28;;;16.67;71.12
56668;BME280;42542;48.360;10.958;2023-05-09T10:11:28;96051.16;;;16.73;71.83
56668;BME280;42542;48.360;10.958;2023-05-09T10:14:33;96040.56;;;16.78;71.74
56668;BME280;42542;48.360;10.958;2023-05-09T10:17:36;96032.28;;;16.87;68.04
56668;BME280;42542;48.360;10.958;2023-05-09T10:20:38;96025.25;;;16.99;66.13
56668;BME280;42542;48.360;10.958;2023-05-09T10:23:45;96024.44;;;17.05;63.51
56668;BME280;42542;48.360;10.958;2023-05-09T10:26:50;96018.00;;;17.12;65.84
56668;BME280;42542;48.360;10.958;2023-05-09T10:30:06;96010.94;;;17.25;65.99
56668;BME280;42542;48.360;10.958;2023-05-09T10:33:10;96000.94;;;17.32;63.17
56668;BME280;42542;48.360;10.958;2023-05-09T10:36:17;96007.19;;;17.39;62.90
56668;BME280;42542;48.360;10.958;2023-05-09T10:39:21;95999.69;;;17.47;63.10
56668;BME280;42542;48.360;10.958;2023-05-09T10:42:24;95994.69;;;17.58;64.02
56668;BME280;42542;48.360;10.958;2023-05-09T10:45:26;95986.59;;;17.64;61.73
56668;BME280;42542;48.360;10.958;2023-05-09T10:48:31;95986.78;;;17.76;61.89
56668;BME280;42542;48.360;10.958;2023-05-09T10:51:33;95978.84;;;17.81;63.18
56668;BME280;42542;48.360;10.958;2023-05-09T10:54:36;95976.34;;;17.86;63.60
56668;BME280;42542;48.360;10.958;2023-05-09T10:57:38;95969.63;;;17.95;62.34
56668;BME280;42542;48.360;10.958;2023-05-09T11:00:40;95960.66;;;18.01;62.24
56668;BME280;42542;48.360;10.958;2023-05-09T11:03:54;95960.84;;;18.13;61.52
56668;BME280;42542;48.360;10.958;2023-05-09T11:06:59;95950.13;;;18.31;61.96
56668;BME280;42542;48.360;10.958;2023-05-09T11:10:08;95942.53;;;18.46;60.63
56668;BME280;42542;48.360;10.958;2023-05-09T11:13:11;95937.91;;;18.60;59.90
56668;BME280;42542;48.360;10.958;2023-05-09T11:16:13;95929.09;;;18.71;59.87
56668;BME280;42542;48.360;10.958;2023-05-09T11:20:17;95919.03;;;18.78;58.83
56668;BME280;42542;48.360;10.958;2023-05-09T11:22:58;95915.81;;;18.94;59.35
56668;BME280;42542;48.360;10.958;2023-05-09T11:26:05;95911.75;;;19.03;59.15
56668;BME280;42542;48.360;10.958;2023-05-09T11:29:08;95914.63;;;19.08;59.01
56668;BME280;42542;48.360;10.958;2023-05-09T11:32:13;95913.56;;;19.09;59.22
56668;BME280;42542;48.360;10.958;2023-05-09T11:35:17;95911.69;;;19.10;59.03
56668;BME280;42542;48.360;10.958;2023-05-09T11:38:21;95906.03;;;19.11;58.15
56668;BME280;42542;48.360;10.958;2023-05-09T11:41:23;95902.72;;;19.09;57.83
56668;BME280;42542;48.360;10.958;2023-05-09T11:44:26;95888.13;;;19.10;58.21
56668;BME280;42542;48.360;10.958;2023-05-09T11:47:28;95887.47;;;19.15;59.12
56668;BME280;42542;48.360;10.958;2023-05-09T11:50:31;95880.94;;;19.23;58.86
56668;BME280;42542;48.360;10.958;2023-05-09T11:53:33;95867.13;;;19.24;58.82
56668;BME280;42542;48.360;10.958;2023-05-09T11:56:38;95868.81;;;19.25;59.07
56668;BME280;42542;48.360;10.958;2023-05-09T11:59:40;95862.47;;;19.31;60.09
56668;BME280;42542;48.360;10.958;2023-05-09T12:02:43;95857.81;;;19.38;59.10
56668;BME280;42542;48.360;10.958;2023-05-09T12:05:49;95850.91;;;19.42;58.73
56668;BME280;42542;48.360;10.958;2023-05-09T12:08:53;95851.00;;;19.54;59.42
56668;BME280;42542;48.360;10.958;2023-05-09T12:11:59;95849.44;;;19.65;59.21
56668;BME280;42542;48.360;10.958;2023-05-09T12:15:05;95840.72;;;19.74;58.32
56668;BME280;42542;48.360;10.958;2023-05-09T12:18:07;95829.00;;;19.80;58.42
56668;BME280;42542;48.360;10.958;2023-05-09T12:21:09;95816.41;;;19.86;58.14
56668;BME280;42542;48.360;10.958;2023-05-09T12:24:11;95824.22;;;19.94;58.68
56668;BME280;42542;48.360;10.958;2023-05-09T12:27:13;95823.06;;;20.02;58.15
56668;BME280;42542;48.360;10.958;2023-05-09T12:30:15;95816.25;;;20.11;57.39
56668;BME280;42542;48.360;10.958;2023-05-09T12:33:19;95808.72;;;20.24;57.25
56668;BME280;42542;48.360;10.958;2023-05-09T12:36:21;95802.97;;;20.33;56.40
56668;BME280;42542;48.360;10.958;2023-05-09T12:39:25;95801.59;;;20.42;56.71
56668;BME280;42542;48.360;10.958;2023-05-09T12:42:27;95800.56;;;20.54;57.04
56668;BME280;42542;48.360;10.958;2023-05-09T12:45:32;95795.16;;;20.66;56.04
56668;BME280;42542;48.360;10.958;2023-05-09T12:48:36;95786.53;;;20.69;55.79
56668;BME280;42542;48.360;10.958;2023-05-09T12:51:47;95785.94;;;20.79;56.20
56668;BME280;42542;48.360;10.958;2023-05-09T12:54:51;95779.81;;;20.95;56.04
56668;BME280;42542;48.360;10.958;2023-05-09T12:57:58;95774.44;;;21.12;55.38
56668;BME280;42542;48.360;10.958;2023-05-09T13:01:03;95774.94;;;21.32;54.71
56668;BME280;42542;48.360;10.958;2023-05-09T13:04:06;95765.78;;;21.50;53.49
56668;BME280;42542;48.360;10.958;2023-05-09T13:07:08;95766.69;;;21.67;53.58
56668;BME280;42542;48.360;10.958;2023-05-09T13:10:16;95758.91;;;21.87;52.90
56668;BME280;42542;48.360;10.958;2023-05-09T13:13:20;95746.75;;;22.06;52.73
56668;BME280;42542;48.360;10.958;2023-05-09T13:16:23;95749.94;;;22.32;50.53
56668;BME280;42542;48.360;10.958;2023-05-09T13:19:25;95735.34;;;22.54;49.79
56668;BME280;42542;48.360;10.958;2023-05-09T13:22:27;95739.31;;;22.80;49.80
56668;BME280;42542;48.360;10.958;2023-05-09T13:25:30;95732.31;;;23.06;49.43
56668;BME280;42542;48.360;10.958;2023-05-09T13:28:32;95722.44;;;23.22;47.91
56668;BME280;42542;48.360;10.958;2023-05-09T13:31:33;95709.69;;;23.27;46.99
56668;BME280;42542;48.360;10.958;2023-05-09T13:34:36;95710.69;;;23.43;47.05
56668;BME280;42542;48.360;10.958;2023-05-09T13:37:37;95714.59;;;23.69;47.93
56668;BME280;42542;48.360;10.958;2023-05-09T13:40:39;95701.44;;;23.93;46.51
56668;BME280;42542;48.360;10.958;2023-05-09T13:43:43;95701.94;;;24.17;46.05
56668;BME280;42542;48.360;10.958;2023-05-09T13:46:45;95692.31;;;24.36;45.29
56668;BME280;42542;48.360;10.958;2023-05-09T13:49:47;95694.66;;;24.54;44.92
56668;BME280;42542;48.360;10.958;2023-05-09T13:52:49;95700.56;;;24.78;44.32
56668;BME280;42542;48.360;10.958;2023-05-09T13:55:51;95695.47;;;24.92;42.87
56668;BME280;42542;48.360;10.958;2023-05-09T13:58:52;95687.38;;;25.07;43.10
56668;BME280;42542;48.360;10.958;2023-05-09T14:01:54;95684.97;;;25.20;42.67
56668;BME280;42542;48.360;10.958;2023-05-09T14:05:00;95678.75;;;25.35;42.16
56668;BME280;42542;48.360;10.958;2023-05-09T14:08:03;95676.84;;;25.46;41.95
56668;BME280;42542;48.360;10.958;2023-05-09T14:11:05;95664.59;;;25.58;40.71
56668;BME280;42542;48.360;10.958;2023-05-09T14:14:09;95655.59;;;25.63;40.97
56668;BME280;42542;48.360;10.958;2023-05-09T14:17:11;95654.50;;;25.74;40.44
56668;BME280;42542;48.360;10.958;2023-05-09T14:20:13;95653.16;;;25.77;39.74
56668;BME280;42542;48.360;10.958;2023-05-09T14:23:17;95647.94;;;25.80;40.50
56668;BME280;42542;48.360;10.958;2023-05-09T14:26:19;95649.06;;;25.89;39.59
56668;BME280;42542;48.360;10.958;2023-05-09T14:29:21;95640.84;;;25.94;38.93
56668;BME280;42542;48.360;10.958;2023-05-09T14:32:24;95637.31;;;26.04;38.88
56668;BME280;42542;48.360;10.958;2023-05-09T14:35:26;95635.94;;;26.07;38.57
56668;BME280;42542;48.360;10.958;2023-05-09T14:38:28;95626.09;;;26.00;38.15
56668;BME280;42542;48.360;10.958;2023-05-09T14:41:30;95621.94;;;25.88;37.76
56668;BME280;42542;48.360;10.958;2023-05-09T14:44:32;95620.59;;;25.95;38.54
56668;BME280;42542;48.360;10.958;2023-05-09T14:47:34;95612.38;;;25.95;37.73
56668;BME280;42542;48.360;10.958;2023-05-09T14:50:36;95595.94;;;26.00;37.76
56668;BME280;42542;48.360;10.958;2023-05-09T14:53:38;95606.06;;;26.10;37.99
56668;BME280;42542;48.360;10.958;2023-05-09T14:56:42;95592.91;;;26.17;38.23
56668;BME280;42542;48.360;10.958;2023-05-09T14:59:44;95584.69;;;26.22;37.00
56668;BME280;42542;48.360;10.958;2023-05-09T15:02:45;95594.03;;;26.21;37.20
56668;BME280;42542;48.360;10.958;2023-05-09T15:05:48;95589.06;;;26.23;36.78
56668;BME280;42542;48.360;10.958;2023-05-09T15:08:51;95577.28;;;26.23;36.44
56668;BME280;42542;48.360;10.958;2023-05-09T15:11:53;95587.44;;;26.22;36.95
56668;BME280;42542;48.360;10.958;2023-05-09T15:15:14;95581.69;;;26.19;36.42
56668;BME280;42542;48.360;10.958;2023-05-09T15:18:17;95575.94;;;26.10;36.30
56668;BME280;42542;48.360;10.958;2023-05-09T15:21:20;95574.03;;;26.00;36.80
56668;BME280;42542;48.360;10.958;2023-05-09T15:24:22;95569.63;;;25.94;36.74
56668;BME280;42542;48.360;10.958;2023-05-09T15:27:25;95558.97;;;25.88;36.68
56668;BME280;42542;48.360;10.958;2023-05-09T15:30:27;95561.44;;;25.69;36.21
56668;BME280;42542;48.360;10.958;2023-05-09T15:33:29;95555.94;;;25.59;37.24
56668;BME280;42542;48.360;10.958;2023-05-09T15:36:35;95564.38;;;25.52;37.19
56668;BME280;42542;48.360;10.958;2023-05-09T15:39:38;95559.16;;;25.51;37.56
56668;BME280;42542;48.360;10.958;2023-05-09T15:42:44;95552.06;;;25.45;37.49
56668;BME280;42542;48.360;10.958;2023-05-09T15:45:49;95551.22;;;25.39;38.15
56668;BME280;42542;48.360;10.958;2023-05-09T15:48:52;95544.38;;;25.32;37.67
56668;BME280;42542;48.360;10.958;2023-05-09T15:51:56;95541.59;;;25.16;37.54
56668;BME280;42542;48.360;10.958;2023-05-09T15:54:59;95539.38;;;25.03;37.76
56668;BME280;42542;48.360;10.958;2023-05-09T15:58:01;95542.06;;;24.93;37.92
56668;BME280;42542;48.360;10.958;2023-05-09T16:01:05;95536.56;;;24.83;38.31
56668;BME280;42542;48.360;10.958;2023-05-09T16:04:09;95535.13;;;24.70;38.75
56668;BME280;42542;48.360;10.958;2023-05-09T16:07:11;95535.59;;;24.52;38.95
56668;BME280;42542;48.360;10.958;2023-05-09T16:10:13;95528.94;;;24.33;39.32
56668;BME280;42542;48.360;10.958;2023-05-09T16:13:16;95528.00;;;24.17;39.99